Latest Weather Observations for Camooweal

IDD60801

Issued at 1:05 pm CST Thursday 23 October 2014 (issued every 30 minutes, with the page automatically refreshed every 10 minutes)

About weather observations | Map of weather stations | Latest weather observations for NT | Other Formats
Station Details ID: 037010 Name: CAMOOWEAL TOWNSHIP Lat: -19.92 Lon: 138.12 Height: 231.2 m
Data from the previous 72 hours. | See also: Recent months at Camooweal
Date/Time
CST
Temp
°C
App
Temp
°C
Dew
Point
Rel
Hum
%
Delta-T
°C
Wind Press
QNH
hPa
Press
MSL
hPa
Rain
since 9 am
mm
Dir
 
Spd
km/h
Gust
km/h
Spd
kts
Gust
kts
23/01:00pm 33.9 29.8 7.8 20 14.6 NNE 19 24 10 13 1015.0 1013.6 0.0
23/12:30pm 33.7 29.9 7.6 20 14.6 ENE 17 32 9 17 1015.7 1014.2 0.0
23/12:00pm 32.8 29.5 9.6 24 13.3 NNE 17 30 9 16 1016.2 1014.8 0.0
23/11:30am 33.5 29.6 10.8 25 13.3 ENE 22 37 12 20 1016.8 1015.4 0.0
23/11:00am 32.5 28.6 9.3 24 13.2 N 20 26 11 14 1017.1 1015.7 0.0
23/10:30am 32.2 27.6 9.7 25 12.9 NE 24 35 13 19 1017.6 1016.2 0.0
23/10:00am 31.7 26.6 9.3 25 12.7 NE 26 39 14 21 1017.9 1016.5 0.0
23/09:30am 31.1 25.9 8.8 25 12.5 NE 26 39 14 21 1018.0 1016.6 0.0
23/09:00am 30.3 24.5 8.1 25 12.3 NE 28 41 15 22 1017.9 1016.5 0.0
23/08:30am 30.3 24.7 8.7 26 12.1 NE 28 35 15 19 1018.0 1016.6 0.0
23/08:00am 29.2 23.7 7.7 26 11.8 ENE 26 37 14 20 1017.8 1016.4 0.0
23/07:30am 28.3 23.3 6.4 25 11.7 ENE 22 32 12 17 1017.2 1015.8 0.0
23/07:00am 26.0 20.3 2.7 22 11.5 E 22 28 12 15 1016.8 1015.4 0.0
23/06:30am 24.4 19.4 1.3 22 10.9 E 17 24 9 13 1016.5 1015.1 0.0
23/06:00am 23.0 18.3 0.8 23 10.3 E 15 19 8 10 1016.4 1015.0 0.0
23/05:30am 22.6 17.9 1.0 24 10.0 ESE 15 19 8 10 1016.0 1014.5 0.0
23/05:00am 22.4 18.1 0.9 24 10.0 ESE 13 15 7 8 1015.9 1014.4 0.0
23/04:30am 23.3 19.4 1.0 23 10.4 ESE 11 15 6 8 1015.5 1014.0 0.0
23/04:00am 23.2 19.0 1.5 24 10.2 E 13 15 7 8 1015.3 1013.8 0.0
23/03:30am 23.4 19.1 1.1 23 10.5 E 13 15 7 8 1015.2 1013.7 0.0
23/03:00am 23.9 19.7 1.5 23 10.6 E 13 15 7 8 1015.0 1013.6 0.0
23/02:30am 23.6 19.3 1.3 23 10.5 E 13 15 7 8 1015.2 1013.7 0.0
23/02:00am 24.0 19.8 1.6 23 10.7 E 13 15 7 8 1015.2 1013.7 0.0
23/01:30am 24.7 20.6 2.2 23 10.9 ENE 13 15 7 8 1015.3 1013.8 0.0
23/01:00am 23.8 20.2 3.2 26 10.1 E 11 13 6 7 1015.7 1014.2 0.0
23/12:30am 24.9 21.4 3.5 25 10.6 E 11 13 6 7 1016.0 1014.5 0.0
23/12:00am 25.3 22.3 3.9 25 10.7 E 9 13 5 7 1016.2 1014.8 0.0
 
Date/Time
CST
Temp
°C
App
Temp
°C
Dew
Point
Rel
Hum
%
Delta-T
°C
Wind Press
QNH
hPa
Press
MSL
hPa
Rain
since 9 am
mm
Dir
 
Spd
km/h
Gust
km/h
Spd
kts
Gust
kts
22/11:30pm 25.9 23.0 4.9 26 10.7 E 9 11 5 6 1016.4 1015.0 0.0
22/11:00pm 26.8 23.7 5.7 26 11.0 E 11 13 6 7 1016.4 1015.0 0.0
22/10:30pm 27.1 23.6 5.4 25 11.3 E 13 13 7 7 1016.6 1015.2 0.0
22/10:00pm 27.8 24.8 6.0 25 11.5 E 11 15 6 8 1016.5 1015.1 0.0
22/09:30pm 28.1 24.9 5.0 23 12.0 E 11 13 6 7 1016.2 1014.8 0.0
22/09:00pm 28.9 25.8 5.7 23 12.3 E 11 15 6 8 1016.0 1014.5 0.0
22/08:30pm 28.7 25.5 4.9 22 12.4 E 11 13 6 7 1015.7 1014.2 0.0
22/08:00pm 29.5 26.3 4.9 21 12.9 E 11 13 6 7 1015.3 1013.8 0.0
22/07:30pm 30.3 27.1 4.9 20 13.3 E 11 13 6 7 1014.9 1013.5 0.0
22/07:00pm 31.0 28.0 3.9 18 14.1 ESE 9 13 5 7 1014.7 1013.3 0.0
22/06:30pm 32.8 29.0 3.7 16 15.2 E 13 17 7 9 1014.3 1012.9 0.0
22/06:00pm 34.1 29.9 3.8 15 16.0 E 15 22 8 12 1014.0 1012.6 0.0
22/05:30pm 34.9 29.9 3.5 14 16.6 E 19 26 10 14 1013.7 1012.3 0.0
22/05:00pm 35.5 31.1 2.9 13 17.1 ESE 15 24 8 13 1013.5 1012.1 0.0
22/04:30pm 35.7 32.5 3.0 13 17.2 E 9 13 5 7 1013.4 1012.0 0.0
22/04:00pm 35.3 30.1 2.7 13 17.0 E 19 32 10 17 1013.6 1012.2 0.0
22/03:30pm 35.8 32.1 4.2 14 16.9 NE 13 20 7 11 1013.8 1012.4 0.0
22/03:00pm 36.3 33.4 4.6 14 17.1 N 9 22 5 12 1014.0 1012.6 0.0
22/02:30pm 35.8 31.1 3.1 13 17.2 ENE 17 28 9 15 1014.3 1012.9 0.0
22/02:00pm 35.5 30.9 3.9 14 16.8 ENE 17 30 9 16 1014.6 1013.2 0.0
22/01:30pm 35.0 31.5 3.5 14 16.6 NE 11 28 6 15 1015.3 1013.8 0.0
22/01:00pm 34.7 29.6 4.3 15 16.2 E 20 28 11 15 1015.7 1014.2 0.0
22/12:30pm 34.3 29.9 4.9 16 15.8 E 17 22 9 12 1016.3 1014.9 0.0
22/12:00pm 34.7 30.4 6.9 18 15.5 NE 19 33 10 18 1016.6 1015.2 0.0
22/11:30am 33.5 29.3 8.2 21 14.2 ENE 20 33 11 18 1017.0 1015.6 0.0
22/11:00am 33.4 29.0 8.8 22 14.0 NE 22 32 12 17 1017.6 1016.2 0.0
22/10:30am 31.9 26.9 8.2 23 13.2 NE 24 35 13 19 1017.8 1016.4 0.0
22/10:00am 31.7 27.1 8.0 23 13.2 NE 22 32 12 17 1018.0 1016.6 0.0
22/09:30am 31.3 25.7 7.1 22 13.2 NE 26 35 14 19 1018.3 1016.9 0.0
22/09:00am 30.9 25.3 5.3 20 13.6 ENE 24 32 13 17 1018.2 1016.8 0.0
22/08:30am 30.1 24.9 5.4 21 13.1 ENE 22 33 12 18 1018.0 1016.6 0.0
22/08:00am 28.7 23.0 4.9 22 12.4 ENE 24 32 13 17 1017.8 1016.4 0.0
22/07:30am 28.0 21.6 5.0 23 11.9 E 28 39 15 21 1017.5 1016.1 0.0
22/07:00am 26.8 21.8 4.6 24 11.4 E 20 28 11 15 1017.2 1015.8 0.0
22/06:30am 24.4 20.6 3.7 26 10.3 E 13 17 7 9 1016.8 1015.4 0.0
22/06:00am 22.7 18.6 2.2 26 9.8 E 13 17 7 9 1016.5 1015.1 0.0
22/05:30am 23.7 19.2 2.0 24 10.4 E 15 17 8 9 1016.2 1014.8 0.0
22/05:00am 24.5 20.0 2.0 23 10.8 E 15 20 8 11 1015.8 1014.3 0.0
22/04:30am 24.2 19.3 1.8 23 10.7 E 17 20 9 11 1015.5 1014.0 0.0
22/04:00am 23.2 18.8 2.7 26 9.9 E 15 19 8 10 1015.4 1013.9 0.0
22/03:30am 21.9 18.3 3.1 29 9.1 E 11 13 6 7 1015.3 1013.8 0.0
22/03:00am 22.1 18.5 2.8 28 9.3 E 11 13 6 7 1015.2 1013.7 0.0
22/02:30am 23.6 20.2 4.0 28 9.7 E 11 15 6 8 1015.0 1013.6 0.0
22/02:00am 23.3 19.4 3.3 27 9.8 E 13 13 7 7 1015.3 1013.8 0.0
22/01:30am 24.1 20.6 3.4 26 10.2 E 11 13 6 7 1015.5 1014.0 0.0
22/01:00am 23.8 20.5 4.7 29 9.6 E 11 11 6 6 1015.9 1014.4 0.0
22/12:30am 22.3 19.6 2.9 28 9.3 E 6 7 3 4 1016.2 1014.8 0.0
22/12:00am 25.5 23.3 5.1 27 10.5 NNE 6 7 3 4 1016.4 1015.0 0.0
 
Date/Time
CST
Temp
°C
App
Temp
°C
Dew
Point
Rel
Hum
%
Delta-T
°C
Wind Press
QNH
hPa
Press
MSL
hPa
Rain
since 9 am
mm
Dir
 
Spd
km/h
Gust
km/h
Spd
kts
Gust
kts
21/11:30pm 26.1 23.9 5.1 26 10.8 NNE 6 7 3 4 1016.7 1015.3 0.0
21/11:00pm 27.8 24.8 6.0 25 11.5 NNE 11 13 6 7 1016.9 1015.5 0.0
21/10:30pm 27.6 25.3 5.8 25 11.4 NE 7 11 4 6 1017.1 1015.7 0.0
21/10:00pm 28.6 26.0 6.1 24 12.0 NE 9 11 5 6 1017.1 1015.7 0.0
21/09:30pm 28.9 26.2 5.7 23 12.2 NE 9 11 5 6 1017.0 1015.6 0.0
21/09:00pm 29.2 26.6 6.0 23 12.3 NE 9 11 5 6 1016.7 1015.3 0.0
21/08:30pm 29.9 27.3 5.9 22 12.8 ENE 9 11 5 6 1016.5 1015.1 0.0
21/08:00pm 29.3 26.4 4.7 21 12.8 E 9 13 5 7 1016.2 1014.8 0.0
21/07:30pm 31.5 28.8 5.8 20 13.8 NNE 9 11 5 6 1015.8 1014.3 0.0
21/07:00pm 32.3 29.6 5.7 19 14.3 NNE 9 13 5 7 1015.4 1013.9 0.0
21/06:30pm 33.4 30.8 5.9 18 14.9 NE 9 15 5 8 1014.9 1013.5 0.0
21/06:00pm 34.2 32.1 6.5 18 15.3 ENE 7 13 4 7 1014.6 1013.2 0.0
21/05:30pm 34.8 32.8 6.2 17 15.7 NNE 6 17 3 9 1014.3 1012.9 0.0
21/05:00pm 35.2 31.9 6.5 17 15.9 NNE 13 20 7 11 1014.1 1012.7 0.0
21/04:30pm 35.4 32.4 5.8 16 16.2 NE 11 19 6 10 1014.1 1012.7 0.0
21/04:00pm 35.3 32.0 4.8 15 16.5 E 11 24 6 13 1014.1 1012.7 0.0
21/03:30pm 35.6 32.4 5.0 15 16.6 NE 11 20 6 11 1014.1 1012.7 0.0
21/03:00pm 35.8 32.4 4.2 14 16.9 NNE 11 20 6 11 1014.3 1012.9 0.0
21/02:30pm 35.1 32.0 3.6 14 16.6 S 9 15 5 8 1014.6 1013.2 0.0
21/02:00pm 35.3 30.7 3.8 14 16.7 ENE 17 24 9 13 1015.2 1013.7 0.0
21/01:30pm 34.5 29.8 3.1 14 16.4 NE 17 24 9 13 1015.6 1014.1 0.0
21/01:00pm 34.8 29.8 3.4 14 16.5 E 19 24 10 13 1016.2 1014.8 0.0
21/12:30pm 34.1 29.7 2.8 14 16.2 NNE 15 20 8 11 1016.9 1015.5 0.0
21/12:00pm 34.0 30.4 2.8 14 16.2 N 11 20 6 11 1017.4 1016.0 0.0
21/11:30am 34.4 30.6 2.0 13 16.6 ENE 11 20 6 11 1017.9 1016.5 0.0
21/11:00am 33.0 27.7 2.0 14 15.8 NE 19 24 10 13 1018.4 1017.0 0.0
21/10:30am 32.9 27.5 4.6 17 15.0 NE 22 30 12 16 1018.6 1017.2 0.0
21/10:00am 33.0 27.8 5.5 18 14.8 NE 22 32 12 17 1018.8 1017.4 0.0
21/09:30am 32.3 27.0 5.0 18 14.5 ENE 22 32 12 17 1019.0 1017.6 0.0
21/09:00am 31.6 26.1 5.9 20 13.8 E 24 32 13 17 1018.9 1017.5 0.0
21/08:30am 30.7 25.1 5.2 20 13.5 E 24 32 13 17 1018.8 1017.4 0.4
21/08:00am 29.6 23.9 5.0 21 12.9 E 24 33 13 18 1018.8 1017.4 0.0
21/07:30am 27.7 22.6 4.1 22 12.0 E 20 28 11 15 1018.7 1017.3 0.0
21/07:00am 25.0 20.5 2.4 23 11.0 E 15 20 8 11 1018.4 1017.0 0.0
21/06:30am 22.0 18.3 2.2 27 9.4 E 11 13 6 7 1018.1 1016.7 0.0
21/06:00am 20.8 16.9 1.1 27 9.1 E 11 13 6 7 1017.8 1016.4 0.0
21/05:30am 22.1 18.2 1.2 25 9.7 E 11 13 6 7 1017.5 1016.1 0.0
21/05:00am 23.3 19.0 1.0 23 10.4 E 13 17 7 9 1017.0 1015.6 0.0
21/04:30am 24.0 19.8 1.6 23 10.6 E 13 17 7 9 1016.6 1015.2 0.0
21/04:00am 24.6 20.0 1.5 22 11.0 E 15 17 8 9 1016.3 1014.9 0.0
21/03:30am 25.5 20.5 1.6 21 11.5 E 17 19 9 10 1016.0 1014.5 0.0
21/03:00am 25.2 20.2 1.3 21 11.4 E 17 20 9 11 1015.8 1014.3 0.0
21/02:30am 24.8 20.2 1.7 22 11.1 E 15 19 8 10 1015.8 1014.3 0.0
21/02:00am 24.3 20.0 1.2 22 10.9 E 13 17 7 9 1015.8 1014.3 0.0
21/01:30am 25.5 21.4 2.2 22 11.3 ENE 13 17 7 9 1015.9 1014.4 0.0
21/01:00am 25.7 22.0 2.4 22 11.4 ENE 11 15 6 8 1016.0 1014.5 0.0
21/12:30am 24.6 21.0 2.7 24 10.7 E 11 13 6 7 1016.3 1014.9 0.0
21/12:00am 25.1 21.4 2.5 23 11.0 ENE 11 13 6 7 1016.5 1015.1 0.0
 
Date/Time
CST
Temp
°C
App
Temp
°C
Dew
Point
Rel
Hum
%
Delta-T
°C
Wind Press
QNH
hPa
Press
MSL
hPa
Rain
since 9 am
mm
Dir
 
Spd
km/h
Gust
km/h
Spd
kts
Gust
kts
20/11:30pm 26.3 22.3 2.9 22 11.6 E 13 17 7 9 1016.6 1015.2 0.0
20/11:00pm 27.1 23.5 2.9 21 12.0 ENE 11 17 6 9 1016.7 1015.3 0.0
20/10:30pm 26.8 23.5 2.7 21 11.9 E 9 11 5 6 1016.8 1015.4 0.0
20/10:00pm 28.1 24.9 3.0 20 12.6 ENE 9 13 5 7 1016.8 1015.4 0.0
20/09:30pm 27.0 23.5 1.4 19 12.4 E 9 13 5 7 1016.8 1015.4 0.0
20/09:00pm 27.9 24.6 2.2 19 12.7 E 9 13 5 7 1016.6 1015.2 0.0
20/08:30pm 28.1 24.1 0.8 17 13.2 E 11 13 6 7 1016.3 1014.9 0.0
20/08:00pm 28.9 24.9 0.6 16 13.7 E 11 13 6 7 1016.0 1014.5 0.0
20/07:30pm 30.0 25.9 -0.4 14 14.6 E 11 11 6 6 1015.5 1014.0 0.0
20/07:00pm 30.8 26.8 0.2 14 14.9 ESE 11 13 6 7 1015.0 1013.6 0.0
20/06:30pm 32.3 28.3 0.4 13 15.7 ESE 11 15 6 8 1014.7 1013.3 0.0
20/06:00pm 33.9 29.1 0.5 12 16.7 ESE 15 22 8 12 1014.3 1012.9 0.0
20/05:30pm 34.9 29.3 1.3 12 17.1 E 20 24 11 13 1013.9 1012.5 0.0
20/05:00pm 35.1 31.3 1.5 12 17.2 SE 11 17 6 9 1013.7 1012.3 0.0
20/04:30pm 35.8 32.0 2.0 12 17.5 E 11 24 6 13 1013.6 1012.2 0.0
20/04:00pm 36.0 31.1 2.1 12 17.6 E 17 30 9 16 1013.7 1012.3 0.0
20/03:30pm 35.5 30.2 2.9 13 17.1 ESE 20 22 11 12 1013.9 1012.5 0.0
20/03:00pm 36.0 30.9 3.3 13 17.3 ENE 19 28 10 15 1014.2 1012.8 0.0
20/02:30pm 34.4 31.4 4.0 15 16.1 NNE 9 20 5 11 1014.7 1013.3 0.0
20/02:00pm 34.9 30.6 5.4 16 16.0 E 17 32 9 17 1015.2 1013.7 0.0
20/01:30pm 34.1 29.8 7.2 19 15.0 NNE 19 32 10 17 1015.7 1014.2 0.0
20/01:00pm 34.1 31.2 8.0 20 14.7 NNE 13 28 7 15 1016.1 1014.7 0.0

Other Formats:

Comma delimited format used in spreadsheet applications
http://www.bom.gov.au/fwo/IDD60801/IDD60801.94255.axf

JavaScript Object Notation format (JSON) in row-major order
http://www.bom.gov.au/fwo/IDD60801/IDD60801.94255.json